createdAt,value
2017-11-18T00:01:16.659Z,94489.05
2017-11-18T00:02:55.457Z,94516.34
2017-11-18T00:04:35.191Z,94537.63
2017-11-18T00:06:13.647Z,94597.24
2017-11-18T00:07:53.439Z,94682.91
2017-11-18T00:09:36.212Z,94782.03
2017-11-18T00:11:15.538Z,94714.25
2017-11-18T00:12:56.139Z,94680.27
2017-11-18T00:14:36.767Z,94653.39
2017-11-18T00:16:20.924Z,94630.66
2017-11-18T00:17:59.837Z,94640.06
2017-11-18T00:19:38.624Z,94647.48
2017-11-18T00:21:19.427Z,94704.00
2017-11-18T00:22:58.417Z,94759.77
2017-11-18T00:24:38.121Z,94746.05
2017-11-18T00:26:16.951Z,94712.52
2017-11-18T00:27:55.023Z,94690.25
2017-11-18T00:29:34.047Z,94654.70
2017-11-18T00:31:20.111Z,94647.41
2017-11-18T00:33:01.435Z,94662.38
2017-11-18T00:34:39.738Z,94675.77
2017-11-18T00:36:19.961Z,94669.31
2017-11-18T00:37:58.650Z,94661.96
2017-11-18T00:39:37.075Z,94664.95
2017-11-18T00:41:15.454Z,94618.23
2017-11-18T00:42:55.518Z,94623.91
2017-11-18T00:44:34.757Z,94629.88
2017-11-18T00:46:12.773Z,94631.62
2017-11-18T00:47:51.075Z,94650.82
2017-11-18T00:49:29.574Z,94627.25
2017-11-18T00:51:07.665Z,94577.51
2017-11-18T00:52:45.973Z,94546.28
2017-11-18T00:54:24.383Z,94539.84
2017-11-18T00:56:16.271Z,94512.11
2017-11-18T00:57:54.298Z,94467.59
2017-11-18T00:59:32.490Z,94436.80
2017-11-18T01:01:11.283Z,94435.14
2017-11-18T01:02:51.679Z,94473.68
2017-11-18T01:04:32.182Z,94501.94
2017-11-18T01:06:10.289Z,94513.91
2017-11-18T01:07:49.778Z,94531.78
2017-11-18T01:09:29.683Z,94532.20
2017-11-18T01:11:07.675Z,94554.49
2017-11-18T01:12:46.062Z,94571.27
2017-11-18T01:14:25.250Z,94569.95
2017-11-18T01:16:04.553Z,94579.23
2017-11-18T01:17:43.057Z,94582.83
2017-11-18T01:19:21.387Z,94577.36
2017-11-18T01:21:00.046Z,94587.13
2017-11-18T01:22:38.462Z,94619.55
2017-11-18T01:24:27.641Z,94670.20
2017-11-18T01:26:06.042Z,94639.80
2017-11-18T01:27:45.668Z,94623.91
2017-11-18T01:29:22.875Z,94633.35
2017-11-18T01:31:03.441Z,94594.77
2017-11-18T01:32:41.658Z,94528.83
2017-11-18T01:34:20.345Z,94558.85
2017-11-18T01:35:59.562Z,94584.50
2017-11-18T01:37:38.199Z,94625.58
2017-11-18T01:39:16.836Z,94671.94
2017-11-18T01:40:55.835Z,94700.23
2017-11-18T01:42:36.944Z,94702.39
2017-11-18T01:44:17.154Z,94698.08
2017-11-18T01:45:55.959Z,94672.30
2017-11-18T01:47:36.049Z,94660.73
2017-11-18T01:49:15.168Z,94724.29
2017-11-18T01:50:53.856Z,94765.44
2017-11-18T01:52:32.266Z,94743.08
2017-11-18T01:54:11.670Z,94691.16
2017-11-18T01:55:51.650Z,94615.47
2017-11-18T01:57:32.072Z,94573.36
2017-11-18T01:59:13.254Z,94551.24
2017-11-18T02:00:51.849Z,94556.70
2017-11-18T02:02:42.658Z,94558.85
2017-11-18T02:04:21.271Z,94527.22
2017-11-18T02:06:00.773Z,94519.88
2017-11-18T02:07:39.886Z,94528.83
2017-11-18T02:09:18.450Z,94561.90
2017-11-18T02:10:56.754Z,94584.08
2017-11-18T02:12:36.357Z,94601.61
2017-11-18T02:14:13.849Z,94599.09
2017-11-18T02:15:53.960Z,94564.41
2017-11-18T02:17:32.477Z,94522.08
2017-11-18T02:19:11.285Z,94432.09
2017-11-18T02:20:50.182Z,94401.77
2017-11-18T02:22:29.518Z,94388.61
2017-11-18T02:24:09.983Z,94326.16
2017-11-18T02:25:54.093Z,94330.09
2017-11-18T02:27:32.513Z,94331.70
2017-11-18T02:29:11.304Z,94369.73
2017-11-18T02:30:50.403Z,94454.02
2017-11-18T02:32:29.906Z,94461.72
2017-11-18T02:34:09.414Z,94472.58
2017-11-18T02:35:48.012Z,94454.56
2017-11-18T02:37:26.404Z,94471.59
2017-11-18T02:39:06.327Z,94494.30
2017-11-18T02:40:44.534Z,94510.02
2017-11-18T02:42:23.819Z,94540.85
2017-11-18T02:44:02.437Z,94530.27
2017-11-18T02:45:42.625Z,94536.61
2017-11-18T02:47:25.752Z,94553.33
2017-11-18T02:49:06.970Z,94513.48
2017-11-18T02:50:46.324Z,94438.66
2017-11-18T02:52:25.039Z,94421.16
2017-11-18T02:54:03.619Z,94460.05
2017-11-18T02:55:42.820Z,94483.95
2017-11-18T02:57:21.613Z,94524.70
2017-11-18T02:59:01.021Z,94531.09
2017-11-18T03:00:40.829Z,94532.41
2017-11-18T03:02:24.672Z,94536.61
2017-11-18T03:04:03.321Z,94530.62
2017-11-18T03:05:42.725Z,94535.78
2017-11-18T03:07:31.546Z,94496.39
2017-11-18T03:09:10.037Z,94466.91
2017-11-18T03:10:48.539Z,94434.72
2017-11-18T03:12:26.620Z,94492.98
2017-11-18T03:14:04.832Z,94588.08
2017-11-18T03:15:43.538Z,94651.36
2017-11-18T03:17:20.314Z,94615.82
2017-11-18T03:18:57.399Z,94550.34
2017-11-18T03:20:34.625Z,94494.81
2017-11-18T03:22:11.678Z,94497.28
2017-11-18T03:23:50.728Z,94488.72
2017-11-18T03:25:29.534Z,94474.58
2017-11-18T03:27:09.726Z,94512.74
2017-11-18T03:28:48.949Z,94531.45
2017-11-18T03:30:28.325Z,94510.59
2017-11-18T03:32:07.129Z,94528.53
2017-11-18T03:33:45.327Z,94527.34
2017-11-18T03:35:25.628Z,94597.45
2017-11-18T03:37:06.127Z,94654.11
2017-11-18T03:38:46.426Z,94641.72
2017-11-18T03:40:24.818Z,94655.36
2017-11-18T03:42:03.228Z,94643.03
2017-11-18T03:43:43.121Z,94658.47
2017-11-18T03:45:22.416Z,94663.84
2017-11-18T03:47:01.139Z,94691.78
2017-11-18T03:48:41.137Z,94772.44
2017-11-18T03:50:17.884Z,94858.67
2017-11-18T03:51:56.524Z,94881.31
2017-11-18T03:53:35.024Z,94802.75
2017-11-18T03:55:13.757Z,94783.62
2017-11-18T03:56:53.221Z,94809.69
2017-11-18T03:58:32.239Z,94775.97
2017-11-18T04:00:16.142Z,94720.67
2017-11-18T04:01:55.438Z,94717.15
2017-11-18T04:03:34.743Z,94747.09
2017-11-18T04:05:19.764Z,94820.88
2017-11-18T04:06:58.139Z,94818.78
2017-11-18T04:08:37.549Z,94738.63
2017-11-18T04:10:16.557Z,94700.89
2017-11-18T04:11:55.558Z,94709.56
2017-11-18T04:13:33.859Z,94685.45
2017-11-18T04:15:15.863Z,94724.47
2017-11-18T04:16:55.681Z,94751.88
2017-11-18T04:18:35.163Z,94756.23
2017-11-18T04:20:13.157Z,94703.05
2017-11-18T04:21:54.863Z,94733.91
2017-11-18T04:23:33.879Z,94768.67
2017-11-18T04:25:12.887Z,94754.48
2017-11-18T04:26:51.660Z,94784.52
2017-11-18T04:28:30.164Z,94761.83
2017-11-18T04:30:10.672Z,94798.66
2017-11-18T04:31:50.267Z,94996.55
2017-11-18T04:33:29.099Z,95112.04
2017-11-18T04:35:08.758Z,95061.00
2017-11-18T04:36:47.466Z,95055.31
2017-11-18T04:38:26.160Z,95177.86
2017-11-18T04:40:06.952Z,95320.55
2017-11-18T04:41:47.666Z,95361.02
2017-11-18T04:43:38.065Z,95284.02
2017-11-18T04:45:18.769Z,95195.09
2017-11-18T04:46:58.874Z,95134.89
2017-11-18T04:48:38.562Z,95102.72
2017-11-18T04:50:16.975Z,95153.44
2017-11-18T04:51:57.065Z,95204.26
2017-11-18T04:53:35.584Z,95255.04
2017-11-18T04:56:46.841Z,95242.81
2017-11-18T04:58:23.217Z,95126.74
2017-11-18T05:00:00.204Z,95181.88
2017-11-18T05:01:37.044Z,95321.64
2017-11-18T05:03:13.305Z,95288.59
2017-11-18T05:04:49.448Z,95285.87
2017-11-18T05:06:25.720Z,95318.64
2017-11-18T05:08:02.226Z,95356.86
2017-11-18T05:09:38.574Z,95289.34
2017-11-18T05:11:14.906Z,95242.54
2017-11-18T05:12:51.092Z,95360.13
2017-11-18T05:14:28.137Z,95565.78
2017-11-18T05:16:05.389Z,95678.29
2017-11-18T05:17:42.221Z,95755.87
2017-11-18T05:19:18.723Z,95765.12
2017-11-18T05:20:55.297Z,95729.16
2017-11-18T05:22:31.605Z,95710.36
2017-11-18T05:24:08.011Z,95600.63
2017-11-18T05:25:44.459Z,95697.80
2017-11-18T05:27:21.263Z,95765.43
2017-11-18T05:28:57.919Z,95659.29
2017-11-18T05:30:35.570Z,95530.56
2017-11-18T05:32:11.981Z,95377.27
2017-11-18T05:33:49.146Z,95322.23
2017-11-18T05:35:26.237Z,95316.55
2017-11-18T05:37:03.282Z,95448.69
2017-11-18T05:38:39.961Z,95379.33
2017-11-18T05:40:16.764Z,95287.87
2017-11-18T05:41:53.264Z,95328.72
2017-11-18T05:43:30.196Z,95460.75
2017-11-18T05:45:08.273Z,95586.47
2017-11-18T05:48:24.383Z,95705.97
2017-11-18T05:50:01.078Z,95663.31
2017-11-18T05:51:37.573Z,95699.53
2017-11-18T05:53:19.489Z,95697.80
2017-11-18T05:54:55.673Z,95630.41
2017-11-18T05:56:32.012Z,95523.97
2017-11-18T05:58:08.303Z,95432.38
2017-11-18T05:59:45.831Z,95531.89
2017-11-18T06:01:24.458Z,95628.83
2017-11-18T06:03:00.793Z,95670.13
2017-11-18T06:04:37.140Z,95671.13
2017-11-18T06:06:16.149Z,95679.25
2017-11-18T06:07:52.410Z,95705.13
2017-11-18T06:09:28.874Z,95650.33
2017-11-18T06:11:06.534Z,95648.73
2017-11-18T06:12:42.989Z,95756.91
2017-11-18T06:14:19.179Z,95791.44
2017-11-18T06:15:55.842Z,95814.86
2017-11-18T06:17:32.763Z,95754.48
2017-11-18T06:19:09.497Z,95826.06
2017-11-18T06:20:45.781Z,95771.14
2017-11-18T06:22:22.159Z,95662.09
2017-11-18T06:23:59.425Z,95581.03
2017-11-18T06:25:36.405Z,95631.08
2017-11-18T06:27:13.021Z,95645.83
2017-11-18T06:28:49.782Z,95801.59
2017-11-18T06:30:27.401Z,95875.41
2017-11-18T06:32:04.352Z,95839.45
2017-11-18T06:33:40.565Z,95777.32
2017-11-18T06:35:16.945Z,95886.63
2017-11-18T06:36:53.194Z,95987.73
2017-11-18T06:38:30.232Z,95869.37
2017-11-18T06:40:06.562Z,95851.77
2017-11-18T06:41:43.305Z,95987.41
2017-11-18T06:43:19.493Z,95985.98
2017-11-18T06:44:55.962Z,95817.56
2017-11-18T06:46:32.482Z,95719.61
2017-11-18T06:48:11.004Z,95818.97
2017-11-18T06:49:48.251Z,95933.34
2017-11-18T06:51:25.670Z,95861.14
2017-11-18T06:53:01.999Z,95751.48
2017-11-18T06:54:38.350Z,95836.21
2017-11-18T06:56:14.724Z,95879.68
2017-11-18T06:57:51.918Z,95887.10
2017-11-18T06:59:28.936Z,95893.86
2017-11-18T07:01:05.425Z,95824.12
2017-11-18T07:02:42.457Z,95821.53
2017-11-18T07:04:19.007Z,95859.91
2017-11-18T07:05:55.586Z,95923.02
2017-11-18T07:07:31.801Z,95927.58
2017-11-18T07:09:08.067Z,95889.58
2017-11-18T07:10:44.765Z,95821.00
2017-11-18T07:12:21.306Z,95803.33
2017-11-18T07:13:59.545Z,95754.18
2017-11-18T07:15:36.022Z,95770.88
2017-11-18T07:17:12.505Z,95866.03
2017-11-18T07:18:49.039Z,95727.42
2017-11-18T07:20:25.180Z,95739.48
2017-11-18T07:22:01.354Z,95679.10
2017-11-18T07:23:38.586Z,95833.20
2017-11-18T07:25:19.702Z,95856.05
2017-11-18T07:26:59.010Z,95804.29
2017-11-18T07:28:35.383Z,95724.41
2017-11-18T07:30:12.062Z,95809.41
2017-11-18T07:31:50.782Z,95824.53
2017-11-18T07:33:27.179Z,95811.15
2017-11-18T07:35:04.279Z,95811.52
2017-11-18T07:36:40.771Z,95794.02
2017-11-18T07:38:17.319Z,95887.95
2017-11-18T07:39:53.514Z,95977.45
2017-11-18T07:41:30.859Z,95991.64
2017-11-18T07:43:07.619Z,95941.95
2017-11-18T07:44:44.433Z,95964.50
2017-11-18T07:46:21.054Z,95831.94
2017-11-18T07:47:57.438Z,95885.36
2017-11-18T07:49:34.486Z,95900.47
2017-11-18T07:51:10.758Z,95722.72
2017-11-18T07:52:47.374Z,95656.28
2017-11-18T07:54:23.965Z,95687.30
2017-11-18T07:56:00.821Z,95651.95
2017-11-18T07:57:37.327Z,95710.64
2017-11-18T07:59:13.910Z,95861.02
2017-11-18T08:00:50.493Z,95981.84
2017-11-18T08:02:26.976Z,95992.48
2017-11-18T08:04:03.186Z,95885.08
2017-11-18T08:05:42.750Z,95883.76
2017-11-18T08:07:20.601Z,95893.55
2017-11-18T08:08:57.296Z,95938.58
2017-11-18T08:10:35.101Z,95935.59
2017-11-18T08:12:11.321Z,95939.47
2017-11-18T08:13:48.700Z,95960.16
2017-11-18T08:15:27.206Z,95912.27
2017-11-18T08:17:03.688Z,95854.78
2017-11-18T08:18:40.080Z,95805.23
2017-11-18T08:20:17.429Z,95783.56
2017-11-18T08:21:54.047Z,95844.03
2017-11-18T08:23:31.280Z,95781.45
2017-11-18T08:25:08.100Z,95735.68
2017-11-18T08:26:44.786Z,95791.80
2017-11-18T08:28:21.113Z,95818.61
2017-11-18T08:29:58.219Z,95732.28
2017-11-18T08:31:34.596Z,95716.70
2017-11-18T08:33:11.423Z,95750.84
2017-11-18T08:34:48.860Z,95829.77
2017-11-18T08:36:37.462Z,95879.00
2017-11-18T08:38:14.419Z,95872.92
2017-11-18T08:39:50.685Z,95857.42
2017-11-18T08:41:27.645Z,95917.83
2017-11-18T08:43:04.389Z,95946.34
2017-11-18T08:44:41.543Z,95965.77
2017-11-18T08:46:18.802Z,95751.68
2017-11-18T08:47:55.421Z,95820.83
2017-11-18T08:49:32.170Z,95908.88
2017-11-18T08:51:08.927Z,95970.95
2017-11-18T08:52:45.491Z,95904.49
2017-11-18T08:54:22.470Z,95866.03
2017-11-18T08:55:59.119Z,95864.88
2017-11-18T08:57:35.556Z,95887.10
2017-11-18T08:59:11.975Z,95884.18
2017-11-18T09:00:48.638Z,95809.94
2017-11-18T09:02:25.806Z,95822.52
2017-11-18T09:04:02.176Z,95831.52
2017-11-18T09:05:38.780Z,95776.17
2017-11-18T09:07:15.461Z,95810.05
2017-11-18T09:08:51.848Z,95719.34
2017-11-18T09:10:28.426Z,95732.34
2017-11-18T09:12:04.747Z,95848.00
2017-11-18T09:13:41.759Z,95894.98
2017-11-18T09:15:19.009Z,95882.06
2017-11-18T09:16:55.518Z,95950.36
2017-11-18T09:18:32.021Z,95977.98
2017-11-18T09:20:08.582Z,96054.02
2017-11-18T09:21:44.871Z,96003.97
2017-11-18T09:23:21.913Z,96008.64
2017-11-18T09:24:58.165Z,96057.03
2017-11-18T09:26:34.745Z,96021.13
2017-11-18T09:28:10.983Z,96012.61
2017-11-18T09:29:47.331Z,96067.93
2017-11-18T09:31:23.893Z,96091.17
2017-11-18T09:33:00.641Z,96123.60
2017-11-18T09:34:38.031Z,96132.28
2017-11-18T09:36:14.656Z,96142.57
2017-11-18T09:37:51.121Z,96106.80
2017-11-18T09:39:27.720Z,96020.33
2017-11-18T09:41:04.209Z,96002.51
2017-11-18T09:42:40.556Z,95996.09
2017-11-18T09:44:17.599Z,96057.88
2017-11-18T09:45:54.720Z,96005.58
2017-11-18T09:47:31.071Z,95992.59
2017-11-18T09:49:14.455Z,95967.09
2017-11-18T09:50:54.345Z,95964.08
2017-11-18T09:52:31.001Z,95830.30
2017-11-18T09:54:07.983Z,95874.91
2017-11-18T09:55:45.070Z,95855.84
2017-11-18T09:57:22.592Z,95923.13
2017-11-18T09:58:58.800Z,95869.27
2017-11-18T10:00:35.092Z,95738.27
2017-11-18T10:02:12.050Z,95774.98
2017-11-18T10:03:52.593Z,95817.70
2017-11-18T10:05:36.175Z,95873.40
2017-11-18T10:07:13.009Z,95837.64
2017-11-18T10:08:50.616Z,95931.73
2017-11-18T10:10:27.012Z,95976.66
2017-11-18T10:12:03.913Z,96019.01
2017-11-18T10:13:40.681Z,96009.44
2017-11-18T10:15:18.504Z,95996.52
2017-11-18T10:16:55.821Z,95968.89
2017-11-18T10:18:32.658Z,95895.88
2017-11-18T10:20:09.143Z,95834.27
2017-11-18T10:21:45.760Z,95868.78
2017-11-18T10:23:22.099Z,95862.23
2017-11-18T10:24:59.132Z,95986.20
2017-11-18T10:26:35.464Z,96006.47
2017-11-18T10:28:11.834Z,96050.52
2017-11-18T10:29:48.240Z,95935.09
2017-11-18T10:31:25.211Z,95973.65
2017-11-18T10:33:01.714Z,96097.70
2017-11-18T10:34:41.168Z,96081.33
2017-11-18T10:36:19.371Z,96103.73
2017-11-18T10:37:56.557Z,96100.66
2017-11-18T10:39:33.016Z,96124.88
2017-11-18T10:41:09.599Z,96110.62
2017-11-18T10:42:45.839Z,96055.28
2017-11-18T10:44:22.139Z,96024.67
2017-11-18T10:45:58.995Z,95835.95
2017-11-18T10:47:35.220Z,95789.27
2017-11-18T10:49:11.537Z,95648.95
2017-11-18T10:50:48.404Z,95680.95
2017-11-18T10:52:26.010Z,95778.58
2017-11-18T10:54:02.819Z,95892.76
2017-11-18T10:55:39.333Z,95927.88
2017-11-18T10:57:15.867Z,95949.47
2017-11-18T10:58:54.216Z,95873.40
2017-11-18T11:00:37.715Z,95873.40
2017-11-18T11:02:16.124Z,95885.55
2017-11-18T11:03:54.422Z,95910.52
2017-11-18T11:05:32.723Z,96000.00
2017-11-18T11:07:09.145Z,95990.01
2017-11-18T11:08:46.319Z,95996.98
2017-11-18T11:10:24.132Z,96000.00
2017-11-18T11:12:00.454Z,96024.95
2017-11-18T11:13:37.097Z,95956.76
2017-11-18T11:15:15.831Z,95795.23
2017-11-18T11:16:52.899Z,95936.49
2017-11-18T11:18:29.182Z,96025.94
2017-11-18T11:20:05.721Z,95982.23
2017-11-18T11:21:42.096Z,96010.86
2017-11-18T11:23:19.191Z,96020.33
2017-11-18T11:24:56.697Z,95960.73
2017-11-18T11:26:33.374Z,96017.27
2017-11-18T11:28:10.274Z,96070.05
2017-11-18T11:29:46.988Z,96124.82
2017-11-18T11:31:23.676Z,96154.22
2017-11-18T11:33:00.160Z,96037.12
2017-11-18T11:34:37.309Z,95971.53
2017-11-18T11:36:14.025Z,96120.30
2017-11-18T11:37:50.602Z,96209.38
2017-11-18T11:39:27.257Z,96281.53
2017-11-18T11:41:04.082Z,96268.06
2017-11-18T11:42:41.424Z,96062.63
2017-11-18T11:44:18.272Z,95910.43
2017-11-18T11:45:55.370Z,95936.91
2017-11-18T11:47:32.157Z,96000.37
2017-11-18T11:49:09.338Z,96116.81
2017-11-18T11:50:45.851Z,96168.90
2017-11-18T11:52:22.461Z,96240.08
2017-11-18T11:53:59.836Z,96202.86
2017-11-18T11:55:36.889Z,96249.55
2017-11-18T11:57:13.879Z,96107.97
2017-11-18T11:58:50.549Z,96066.02
2017-11-18T12:00:30.510Z,96191.58
2017-11-18T12:02:07.440Z,96168.10
2017-11-18T12:03:44.089Z,96207.20
2017-11-18T12:05:25.630Z,96084.72
2017-11-18T12:07:02.328Z,96207.48
2017-11-18T12:08:39.888Z,96172.87
2017-11-18T12:10:23.765Z,96114.16
2017-11-18T12:12:00.706Z,96197.61
2017-11-18T12:13:37.449Z,96235.81
2017-11-18T12:15:16.000Z,96275.11
2017-11-18T12:16:52.920Z,96306.72
2017-11-18T12:18:29.447Z,96314.98
2017-11-18T12:20:05.850Z,96258.30
2017-11-18T12:21:43.104Z,96188.09
2017-11-18T12:23:20.152Z,96243.14
2017-11-18T12:24:56.573Z,96251.83
2017-11-18T12:26:33.288Z,96273.46
2017-11-18T12:28:10.121Z,96293.34
2017-11-18T12:29:47.492Z,96301.00
2017-11-18T12:31:24.125Z,96329.69
2017-11-18T12:33:01.008Z,96135.72
2017-11-18T12:34:38.054Z,96116.28
2017-11-18T12:36:14.729Z,96259.25
2017-11-18T12:37:51.547Z,96229.30
2017-11-18T12:39:28.894Z,96129.27
2017-11-18T12:41:05.879Z,96272.61
2017-11-18T12:42:43.492Z,96217.55
2017-11-18T12:44:19.991Z,96217.49
2017-11-18T12:45:57.131Z,96233.64
2017-11-18T12:47:33.738Z,96325.28
2017-11-18T12:49:11.081Z,96309.27
2017-11-18T12:50:48.410Z,96302.89
2017-11-18T12:52:25.577Z,96257.45
2017-11-18T12:54:02.934Z,96327.03
2017-11-18T12:55:39.532Z,96411.67
2017-11-18T12:57:16.088Z,96352.59
2017-11-18T12:58:52.699Z,96311.55
2017-11-18T13:00:29.742Z,96361.72
2017-11-18T13:02:06.424Z,96449.78
2017-11-18T13:03:43.834Z,96477.96
2017-11-18T13:05:20.275Z,96520.33
2017-11-18T13:06:56.975Z,96537.28
2017-11-18T13:08:36.569Z,96499.15
2017-11-18T13:10:13.730Z,96321.40
2017-11-18T13:11:49.934Z,96304.97
2017-11-18T13:13:27.868Z,96374.66
2017-11-18T13:15:04.198Z,96386.96
2017-11-18T13:16:41.655Z,96394.98
2017-11-18T13:18:17.944Z,96347.48
2017-11-18T13:19:54.571Z,96282.86
2017-11-18T13:21:30.770Z,96307.09
2017-11-18T13:23:08.902Z,96346.08
2017-11-18T13:24:46.165Z,96373.82
2017-11-18T13:26:22.814Z,96422.83
2017-11-18T13:27:59.223Z,96437.62
2017-11-18T13:29:36.312Z,96462.77
2017-11-18T13:31:12.853Z,96369.98
2017-11-18T13:32:50.763Z,96330.05
2017-11-18T13:34:27.416Z,96177.69
2017-11-18T13:36:04.012Z,96238.38
2017-11-18T13:37:40.938Z,96206.35
2017-11-18T13:39:18.316Z,96240.50
2017-11-18T13:40:54.949Z,96322.30
2017-11-18T13:42:32.064Z,96399.92
2017-11-18T13:44:14.500Z,96301.14
2017-11-18T13:45:51.781Z,96342.24
2017-11-18T13:47:30.639Z,96356.52
2017-11-18T13:49:07.279Z,96395.52
2017-11-18T13:50:44.988Z,96398.97
2017-11-18T13:52:23.998Z,96439.79
2017-11-18T13:54:00.454Z,96461.88
2017-11-18T13:55:37.236Z,96448.34
2017-11-18T13:57:13.768Z,96401.19
2017-11-18T13:58:50.917Z,96370.32
2017-11-18T14:00:34.364Z,96346.50
2017-11-18T14:02:11.594Z,96345.73
2017-11-18T14:03:48.737Z,96381.61
2017-11-18T14:05:25.529Z,96283.28
2017-11-18T14:07:01.892Z,96270.39
2017-11-18T14:08:39.428Z,96338.80
2017-11-18T14:10:16.726Z,96342.72
2017-11-18T14:11:54.570Z,96304.92
2017-11-18T14:13:36.588Z,96337.84
2017-11-18T14:15:15.472Z,96355.73
2017-11-18T14:16:53.114Z,96349.58
2017-11-18T14:18:29.495Z,96291.17
2017-11-18T14:20:06.052Z,96301.05
2017-11-18T14:21:43.556Z,96385.59
2017-11-18T14:23:20.475Z,96361.71
2017-11-18T14:24:59.059Z,96438.52
2017-11-18T14:26:35.651Z,96465.77
2017-11-18T14:28:16.916Z,96208.47
2017-11-18T14:29:54.821Z,96188.64
2017-11-18T14:31:31.651Z,96266.89
2017-11-18T14:33:09.169Z,96376.89
2017-11-18T14:34:46.916Z,96325.23
2017-11-18T14:36:23.723Z,96263.72
2017-11-18T14:38:00.663Z,96144.69
2017-11-18T14:39:38.049Z,96123.44
2017-11-18T14:41:14.773Z,96154.64
2017-11-18T14:42:51.821Z,96151.98
2017-11-18T14:44:28.214Z,96129.53
2017-11-18T14:46:04.921Z,96129.11
2017-11-18T14:47:41.441Z,96169.80
2017-11-18T14:49:18.420Z,96158.19
2017-11-18T14:50:54.935Z,96176.25
2017-11-18T14:52:31.528Z,96201.84
2017-11-18T14:54:08.928Z,96138.59
2017-11-18T14:55:46.094Z,96032.62
2017-11-18T14:57:22.924Z,96130.05
2017-11-18T14:58:59.785Z,96170.28
2017-11-18T15:00:36.646Z,96184.53
2017-11-18T15:02:13.798Z,96165.77
2017-11-18T15:03:51.366Z,96200.10
2017-11-18T15:05:27.938Z,96219.50
2017-11-18T15:07:04.514Z,96264.14
2017-11-18T15:08:41.714Z,96254.23
2017-11-18T15:10:18.983Z,96284.03
2017-11-18T15:11:56.832Z,96164.45
2017-11-18T15:13:34.279Z,96227.08
2017-11-18T15:15:11.333Z,96276.61
2017-11-18T15:16:52.199Z,96329.10
2017-11-18T15:18:33.152Z,96342.11
2017-11-18T15:20:13.844Z,96272.80
2017-11-18T15:21:55.117Z,96284.50
2017-11-18T15:23:35.784Z,96340.39
2017-11-18T15:25:16.595Z,96344.70
2017-11-18T15:26:57.196Z,96232.12
2017-11-18T15:28:38.968Z,96338.55
2017-11-18T15:30:17.317Z,96391.86
2017-11-18T15:31:54.521Z,96388.42
2017-11-18T15:33:32.198Z,96360.70
2017-11-18T15:35:10.071Z,96317.81
2017-11-18T15:36:47.074Z,96238.59
2017-11-18T15:38:24.404Z,96220.94
2017-11-18T15:40:02.222Z,96181.78
2017-11-18T15:41:39.996Z,96166.20
2017-11-18T15:43:17.402Z,96142.94
2017-11-18T15:44:55.598Z,96033.09
2017-11-18T15:46:33.038Z,96072.45
2017-11-18T15:48:11.778Z,96066.78
2017-11-18T15:49:52.463Z,96076.30
2017-11-18T15:51:30.251Z,96127.89
2017-11-18T15:53:10.851Z,96089.77
2017-11-18T15:54:48.036Z,96177.58
2017-11-18T15:56:27.522Z,96094.53
2017-11-18T15:58:05.439Z,96143.84
2017-11-18T15:59:42.526Z,96196.19
2017-11-18T16:01:25.090Z,96164.40
2017-11-18T16:03:02.535Z,96169.74
2017-11-18T16:04:39.890Z,96232.98
2017-11-18T16:06:20.021Z,96265.47
2017-11-18T16:07:57.552Z,96255.03
2017-11-18T16:09:38.917Z,96238.11
2017-11-18T16:11:18.017Z,96189.03
2017-11-18T16:12:54.851Z,96217.33
2017-11-18T16:14:32.059Z,96191.79
2017-11-18T16:16:09.359Z,96186.97
2017-11-18T16:17:48.509Z,96145.05
2017-11-18T16:19:25.186Z,96072.02
2017-11-18T16:21:02.294Z,96158.47
2017-11-18T16:22:39.375Z,96187.55
2017-11-18T16:24:16.084Z,96088.86
2017-11-18T16:25:53.794Z,96160.69
2017-11-18T16:27:32.364Z,96078.00
2017-11-18T16:29:08.869Z,96027.97
2017-11-18T16:30:46.471Z,95939.26
2017-11-18T16:32:23.156Z,95937.63
2017-11-18T16:34:00.462Z,95985.45
2017-11-18T16:35:39.854Z,96077.31
2017-11-18T16:37:16.346Z,96179.24
2017-11-18T16:38:53.418Z,96247.70
2017-11-18T16:40:30.369Z,96214.27
2017-11-18T16:42:06.945Z,96171.86
2017-11-18T16:43:43.560Z,96020.98
2017-11-18T16:45:21.334Z,95926.45
2017-11-18T16:46:58.820Z,95873.72
2017-11-18T16:48:35.794Z,95848.22
2017-11-18T16:50:14.774Z,95929.38
2017-11-18T16:51:52.253Z,96059.03
2017-11-18T16:53:29.994Z,96053.43
2017-11-18T16:55:06.505Z,96113.02
2017-11-18T16:56:43.465Z,96212.14
2017-11-18T16:58:19.986Z,96263.23
2017-11-18T16:59:56.755Z,96304.81
2017-11-18T17:01:33.729Z,96301.84
2017-11-18T17:03:10.372Z,96220.52
2017-11-18T17:04:48.455Z,96195.14
2017-11-18T17:06:27.481Z,96130.23
2017-11-18T17:08:17.925Z,96102.41
2017-11-18T17:09:57.563Z,96202.70
2017-11-18T17:11:35.861Z,96176.68
2017-11-18T17:13:14.681Z,96194.86
2017-11-18T17:14:51.557Z,96256.78
2017-11-18T17:16:28.869Z,96175.70
2017-11-18T17:18:05.475Z,96164.24
2017-11-18T17:21:22.896Z,96328.15
2017-11-18T17:22:59.532Z,96350.74
2017-11-18T17:24:36.322Z,96325.88
2017-11-18T17:26:16.199Z,96269.19
2017-11-18T17:27:53.298Z,96274.44
2017-11-18T17:29:30.089Z,96282.75
2017-11-18T17:31:06.756Z,96268.01
2017-11-18T17:32:44.261Z,96311.33
2017-11-18T17:34:21.165Z,96338.64
2017-11-18T17:35:57.727Z,96376.69
2017-11-18T17:37:35.148Z,96367.98
2017-11-18T17:39:12.019Z,96374.98
2017-11-18T17:40:48.917Z,96355.52
2017-11-18T17:42:26.603Z,96383.59
2017-11-18T17:44:03.230Z,96326.40
2017-11-18T17:45:39.956Z,96335.09
2017-11-18T17:47:16.915Z,96308.73
2017-11-18T17:48:56.485Z,96377.59
2017-11-18T17:50:35.785Z,96454.82
2017-11-18T17:52:14.782Z,96476.91
2017-11-18T17:53:52.210Z,96469.53
2017-11-18T17:55:28.855Z,96477.72
2017-11-18T17:57:05.557Z,96362.94
2017-11-18T17:58:42.934Z,96235.63
2017-11-18T18:00:21.232Z,96359.06
2017-11-18T18:01:58.149Z,96446.45
2017-11-18T18:03:35.662Z,96403.27
2017-11-18T18:05:12.302Z,96381.37
2017-11-18T18:06:49.718Z,96378.06
2017-11-18T18:08:27.967Z,96289.13
2017-11-18T18:10:05.262Z,96262.77
2017-11-18T18:11:43.767Z,96202.19
2017-11-18T18:13:20.372Z,96195.81
2017-11-18T18:14:57.781Z,96150.58
2017-11-18T18:16:35.497Z,96071.97
2017-11-18T18:18:12.293Z,96050.84
2017-11-18T18:19:48.683Z,96056.50
2017-11-18T18:21:27.630Z,96037.55
2017-11-18T18:23:04.275Z,96065.45
2017-11-18T18:24:47.075Z,96140.30
2017-11-18T18:26:24.361Z,96194.02
2017-11-18T18:28:00.663Z,96188.83
2017-11-18T18:29:37.410Z,96154.64
2017-11-18T18:31:15.936Z,96123.07
2017-11-18T18:32:52.495Z,96055.66
2017-11-18T18:34:28.850Z,96075.94
2017-11-18T18:36:05.372Z,96078.95
2017-11-18T18:37:42.234Z,96097.06
2017-11-18T18:39:19.573Z,96119.58
2017-11-18T18:40:59.975Z,96034.42
2017-11-18T18:42:37.302Z,95844.37
2017-11-18T18:44:15.158Z,95819.30
2017-11-18T18:45:51.976Z,95808.20
2017-11-18T18:47:29.028Z,95823.69
2017-11-18T18:49:10.441Z,95735.09
2017-11-18T18:50:48.092Z,95718.34
2017-11-18T18:52:24.994Z,95768.80
2017-11-18T18:54:01.355Z,95807.24
2017-11-18T18:55:39.413Z,95878.47
2017-11-18T18:57:16.661Z,95957.09
2017-11-18T18:58:54.180Z,96004.20
2017-11-18T19:00:31.657Z,96059.45
2017-11-18T19:02:09.422Z,96093.15
2017-11-18T19:03:47.146Z,96058.67
2017-11-18T19:05:23.728Z,96168.95
2017-11-18T19:07:00.490Z,96234.02
2017-11-18T19:08:37.021Z,96245.05
2017-11-18T19:10:13.914Z,96213.47
2017-11-18T19:11:51.300Z,96151.09
2017-11-18T19:13:34.626Z,96070.75
2017-11-18T19:15:12.257Z,96025.32